createdAt,value
2018-06-16T00:01:12.140Z,99.90
2018-06-16T00:06:21.998Z,99.90
2018-06-16T00:09:04.822Z,99.90
2018-06-16T00:11:50.031Z,99.90
2018-06-16T00:14:21.144Z,99.90
2018-06-16T00:17:05.350Z,99.90
2018-06-16T00:19:47.133Z,99.90
2018-06-16T00:22:30.320Z,99.90
2018-06-16T00:25:01.249Z,99.90
2018-06-16T00:27:46.553Z,99.90
2018-06-16T00:30:28.124Z,99.90
2018-06-16T00:33:07.921Z,99.90
2018-06-16T00:35:39.728Z,99.90
2018-06-16T00:38:20.525Z,99.90
2018-06-16T00:41:02.525Z,99.90
2018-06-16T00:43:37.619Z,99.90
2018-06-16T00:46:07.315Z,99.90
2018-06-16T00:48:51.728Z,99.90
2018-06-16T00:51:35.841Z,99.90
2018-06-16T00:54:07.579Z,99.90
2018-06-16T00:56:37.064Z,99.90
2018-06-16T00:59:17.639Z,99.90
2018-06-16T01:02:07.430Z,99.90
2018-06-16T01:04:38.559Z,99.90
2018-06-16T01:09:58.818Z,99.90
2018-06-16T01:12:40.500Z,99.90
2018-06-16T01:15:12.392Z,99.90
2018-06-16T01:17:55.441Z,99.90
2018-06-16T01:20:39.848Z,99.90
2018-06-16T01:23:25.940Z,99.90
2018-06-16T01:25:58.544Z,99.90
2018-06-16T01:28:39.028Z,99.90
2018-06-16T01:31:18.789Z,99.90
2018-06-16T01:34:00.511Z,99.90
2018-06-16T01:36:30.866Z,99.90
2018-06-16T01:39:11.586Z,99.90
2018-06-16T01:41:59.220Z,99.90
2018-06-16T01:44:36.367Z,99.90
2018-06-16T01:47:08.197Z,99.90
2018-06-16T01:49:54.026Z,99.90
2018-06-16T01:52:37.299Z,99.90
2018-06-16T01:55:08.019Z,99.90
2018-06-16T01:57:50.358Z,99.90
2018-06-16T02:00:32.908Z,99.90
2018-06-16T02:03:13.447Z,99.90
2018-06-16T02:05:44.884Z,99.90
2018-06-16T02:08:26.712Z,99.90
2018-06-16T02:11:07.905Z,99.90
2018-06-16T02:13:45.823Z,99.90
2018-06-16T02:16:16.563Z,99.90
2018-06-16T02:21:40.338Z,99.90
2018-06-16T02:24:26.345Z,99.90
2018-06-16T02:26:57.114Z,99.90
2018-06-16T02:29:38.163Z,99.90
2018-06-16T02:32:21.966Z,99.90
2018-06-16T02:37:22.209Z,99.90
2018-06-16T02:40:03.090Z,99.90
2018-06-16T02:42:44.351Z,99.90
2018-06-16T02:45:14.840Z,99.90
2018-06-16T02:47:56.772Z,99.90
2018-06-16T02:50:41.534Z,99.90
2018-06-16T02:53:26.014Z,99.90
2018-06-16T02:55:57.338Z,99.90
2018-06-16T02:58:39.418Z,99.90
2018-06-16T03:01:19.241Z,99.90
2018-06-16T03:03:58.896Z,99.90
2018-06-16T03:06:28.873Z,99.90
2018-06-16T03:09:09.003Z,99.90
2018-06-16T03:11:51.458Z,99.90
2018-06-16T03:14:34.093Z,99.90
2018-06-16T03:17:04.957Z,99.90
2018-06-16T03:19:46.813Z,99.90
2018-06-16T03:22:27.763Z,99.90
2018-06-16T03:25:05.787Z,99.90
2018-06-16T03:27:35.545Z,99.90
2018-06-16T03:30:20.840Z,99.90
2018-06-16T03:33:08.108Z,99.90
2018-06-16T03:35:38.684Z,99.90
2018-06-16T03:38:09.169Z,99.90
2018-06-16T03:40:50.526Z,99.90
2018-06-16T03:43:36.756Z,99.90
2018-06-16T03:46:08.315Z,99.90
2018-06-16T03:48:46.825Z,99.90
2018-06-16T03:51:28.999Z,99.90
2018-06-16T03:54:07.174Z,99.90
2018-06-16T03:56:38.421Z,99.90
2018-06-16T03:59:16.058Z,99.90
2018-06-16T04:01:51.779Z,99.90
2018-06-16T04:04:29.832Z,99.90
2018-06-16T04:07:00.465Z,99.90
2018-06-16T04:09:44.181Z,99.90
2018-06-16T04:12:29.607Z,99.90
2018-06-16T04:15:09.972Z,99.90
2018-06-16T04:20:27.116Z,99.90
2018-06-16T04:23:10.840Z,99.90
2018-06-16T04:25:41.889Z,99.90
2018-06-16T04:28:12.081Z,99.90
2018-06-16T04:30:56.830Z,99.90
2018-06-16T04:33:40.355Z,99.90
2018-06-16T04:36:10.821Z,99.90
2018-06-16T04:38:43.912Z,99.90
2018-06-16T04:41:27.589Z,99.90
2018-06-16T04:44:09.775Z,99.90
2018-06-16T04:46:40.472Z,99.90
2018-06-16T04:49:21.281Z,99.90
2018-06-16T04:52:03.704Z,99.90
2018-06-16T04:54:41.917Z,99.90
2018-06-16T04:57:13.589Z,99.90
2018-06-16T04:59:51.829Z,99.90
2018-06-16T05:02:34.400Z,99.90
2018-06-16T05:05:15.306Z,99.90
2018-06-16T05:07:46.674Z,99.90
2018-06-16T05:10:30.097Z,99.90
2018-06-16T05:13:15.793Z,99.90
2018-06-16T05:15:56.486Z,99.90
2018-06-16T05:18:27.864Z,99.90
2018-06-16T05:21:06.257Z,99.90
2018-06-16T05:23:49.269Z,99.90
2018-06-16T05:26:21.578Z,99.90
2018-06-16T05:28:51.480Z,99.90
2018-06-16T05:31:31.241Z,99.90
2018-06-16T05:34:13.080Z,99.90
2018-06-16T05:36:44.959Z,99.90
2018-06-16T05:39:16.593Z,99.90
2018-06-16T05:41:55.969Z,99.90
2018-06-16T05:44:39.334Z,99.90
2018-06-16T05:47:16.681Z,99.90
2018-06-16T05:49:59.761Z,99.90
2018-06-16T05:52:43.025Z,99.90
2018-06-16T05:55:27.432Z,99.90
2018-06-16T05:57:58.572Z,99.90
2018-06-16T06:00:38.299Z,99.90
2018-06-16T06:03:22.004Z,99.90
2018-06-16T06:08:32.292Z,99.90
2018-06-16T06:11:16.668Z,99.90
2018-06-16T06:14:04.318Z,99.90
2018-06-16T06:16:39.116Z,99.90
2018-06-16T06:19:09.980Z,99.90
2018-06-16T06:21:48.999Z,98.00
2018-06-16T06:24:30.829Z,96.40
2018-06-16T06:27:02.481Z,95.30
2018-06-16T06:29:31.981Z,95.00
2018-06-16T06:32:02.974Z,93.40
2018-06-16T06:34:33.720Z,92.50
2018-06-16T06:37:05.740Z,91.90
2018-06-16T06:39:36.211Z,91.50
2018-06-16T06:42:15.706Z,91.70
2018-06-16T06:44:58.068Z,92.00
2018-06-16T06:47:36.856Z,90.10
2018-06-16T06:50:07.165Z,90.80
2018-06-16T06:52:48.933Z,91.00
2018-06-16T06:55:29.077Z,90.60
2018-06-16T06:58:10.123Z,91.60
2018-06-16T07:00:40.522Z,92.50
2018-06-16T07:03:18.393Z,93.20
2018-06-16T07:05:48.220Z,93.70
2018-06-16T07:08:22.518Z,93.10
2018-06-16T07:10:59.942Z,95.20
2018-06-16T07:13:41.987Z,94.00
2018-06-16T07:16:12.142Z,94.10
2018-06-16T07:18:51.108Z,93.50
2018-06-16T07:21:21.154Z,92.90
2018-06-16T07:23:51.667Z,93.80
2018-06-16T07:26:28.066Z,95.00
2018-06-16T07:29:06.968Z,95.10
2018-06-16T07:31:37.168Z,94.80
2018-06-16T07:34:07.485Z,94.10
2018-06-16T07:36:36.971Z,93.30
2018-06-16T07:39:15.041Z,92.20
2018-06-16T07:41:54.027Z,93.40
2018-06-16T07:44:31.451Z,92.30
2018-06-16T07:47:02.295Z,92.20
2018-06-16T07:49:39.498Z,93.30
2018-06-16T07:52:10.737Z,93.50
2018-06-16T07:54:47.073Z,94.40
2018-06-16T07:57:26.304Z,92.90
2018-06-16T08:00:01.290Z,92.20
2018-06-16T08:02:32.167Z,92.60
2018-06-16T08:05:07.545Z,90.50
2018-06-16T08:07:43.835Z,92.50
2018-06-16T08:10:19.596Z,92.20
2018-06-16T08:12:49.790Z,93.10
2018-06-16T08:15:26.160Z,92.10
2018-06-16T08:18:01.381Z,93.20
2018-06-16T08:20:30.811Z,91.50
2018-06-16T08:23:08.673Z,90.60
2018-06-16T08:25:46.519Z,91.90
2018-06-16T08:28:17.264Z,92.10
2018-06-16T08:30:47.664Z,92.40
2018-06-16T08:33:29.574Z,93.00
2018-06-16T08:36:07.865Z,93.00
2018-06-16T08:38:38.058Z,92.00
2018-06-16T08:41:08.330Z,91.30
2018-06-16T08:43:44.743Z,92.90
2018-06-16T08:46:25.675Z,90.50
2018-06-16T08:48:55.794Z,90.30
2018-06-16T08:51:29.693Z,90.40
2018-06-16T08:54:01.956Z,88.70
2018-06-16T08:56:32.079Z,90.40
2018-06-16T08:59:01.570Z,87.60
2018-06-16T09:04:13.288Z,87.20
2018-06-16T09:06:44.335Z,85.90
2018-06-16T09:09:15.031Z,85.90
2018-06-16T09:11:53.112Z,84.20
2018-06-16T09:14:28.886Z,85.00
2018-06-16T09:16:59.686Z,85.60
2018-06-16T09:19:29.130Z,83.20
2018-06-16T09:21:58.630Z,84.30
2018-06-16T09:24:29.010Z,86.50
2018-06-16T09:26:58.460Z,84.70
2018-06-16T09:29:27.931Z,81.50
2018-06-16T09:31:59.337Z,84.50
2018-06-16T09:34:28.759Z,86.90
2018-06-16T09:36:58.233Z,85.10
2018-06-16T09:39:28.266Z,81.50
2018-06-16T09:41:57.756Z,82.00
2018-06-16T09:44:27.186Z,86.10
2018-06-16T09:46:57.369Z,76.50
2018-06-16T09:49:26.768Z,80.70
2018-06-16T09:51:56.246Z,76.50
2018-06-16T09:54:26.494Z,75.30
2018-06-16T09:56:55.935Z,76.90
2018-06-16T09:59:25.368Z,74.00
2018-06-16T10:01:55.732Z,77.90
2018-06-16T10:04:25.331Z,80.90
2018-06-16T10:06:54.756Z,75.30
2018-06-16T10:11:53.616Z,69.70
2018-06-16T10:14:23.063Z,71.50
2018-06-16T10:16:53.168Z,73.00
2018-06-16T10:19:22.668Z,72.20
2018-06-16T10:21:52.194Z,71.70
2018-06-16T10:24:21.678Z,70.20
2018-06-16T10:26:51.945Z,70.90
2018-06-16T10:29:21.398Z,71.40
2018-06-16T10:31:50.885Z,71.40
2018-06-16T10:36:51.010Z,71.70
2018-06-16T10:39:20.491Z,71.20
2018-06-16T10:41:50.701Z,70.80
2018-06-16T10:44:20.186Z,73.50
2018-06-16T10:46:49.654Z,70.70
2018-06-16T10:49:19.803Z,70.00
2018-06-16T10:51:49.280Z,70.70
2018-06-16T10:54:19.083Z,68.10
2018-06-16T10:56:49.839Z,68.20
2018-06-16T10:59:19.330Z,66.00
2018-06-16T11:01:49.040Z,64.70
2018-06-16T11:04:19.510Z,66.40
2018-06-16T11:09:17.974Z,62.50
2018-06-16T11:11:48.100Z,64.80
2018-06-16T11:14:17.555Z,63.70
2018-06-16T11:16:47.046Z,66.20
2018-06-16T11:19:17.184Z,65.90
2018-06-16T11:21:46.639Z,67.70
2018-06-16T11:24:16.082Z,65.00
2018-06-16T11:26:46.413Z,67.90
2018-06-16T11:31:44.820Z,59.50
2018-06-16T11:34:15.201Z,61.30
2018-06-16T11:36:46.326Z,62.50
2018-06-16T11:39:16.294Z,58.20
2018-06-16T11:41:45.779Z,62.50
2018-06-16T11:44:15.216Z,61.80
2018-06-16T11:46:45.306Z,61.80
2018-06-16T11:49:14.779Z,58.60
2018-06-16T11:51:44.532Z,58.40
2018-06-16T11:54:15.225Z,57.20
2018-06-16T11:56:44.917Z,57.10
2018-06-16T11:59:14.365Z,59.80
2018-06-16T12:01:44.844Z,60.00
2018-06-16T12:04:14.265Z,59.60
2018-06-16T12:06:43.741Z,61.60
2018-06-16T12:09:14.055Z,59.90
2018-06-16T12:11:43.472Z,60.70
2018-06-16T12:14:12.852Z,56.60
2018-06-16T12:16:43.246Z,58.90
2018-06-16T12:19:12.693Z,56.50
2018-06-16T12:21:42.148Z,59.40
2018-06-16T12:24:13.049Z,57.50
2018-06-16T12:26:42.564Z,57.50
2018-06-16T12:29:12.052Z,55.90
2018-06-16T12:31:41.533Z,57.10
2018-06-16T12:34:11.721Z,55.80
2018-06-16T12:36:41.449Z,57.90
2018-06-16T12:39:13.086Z,55.40
2018-06-16T12:41:42.576Z,54.40
2018-06-16T12:44:12.544Z,56.10
2018-06-16T12:46:42.413Z,53.50
2018-06-16T12:49:11.855Z,52.70
2018-06-16T12:51:42.712Z,54.50
2018-06-16T12:54:12.531Z,53.00
2018-06-16T12:56:42.494Z,51.80
2018-06-16T12:59:11.944Z,54.30
2018-06-16T13:01:41.431Z,54.70
2018-06-16T13:04:11.288Z,52.00
2018-06-16T13:06:40.735Z,51.10
2018-06-16T13:09:10.237Z,51.20
2018-06-16T13:11:40.551Z,51.90
2018-06-16T13:14:10.026Z,53.20
2018-06-16T13:16:39.522Z,50.70
2018-06-16T13:19:10.066Z,52.10
2018-06-16T13:21:39.555Z,52.20
2018-06-16T13:24:12.667Z,49.60
2018-06-16T13:26:42.160Z,49.50
2018-06-16T13:29:12.258Z,48.10
2018-06-16T13:31:42.086Z,48.80
2018-06-16T13:34:11.530Z,48.90
2018-06-16T13:36:41.672Z,48.70
2018-06-16T13:39:12.854Z,48.70
2018-06-16T13:41:44.114Z,50.20
2018-06-16T13:44:13.571Z,50.00
2018-06-16T13:46:43.039Z,48.60
2018-06-16T13:49:13.193Z,48.20
2018-06-16T13:51:42.683Z,49.30
2018-06-16T13:54:12.198Z,51.20
2018-06-16T13:56:42.383Z,48.70
2018-06-16T13:59:11.791Z,50.70
2018-06-16T14:01:41.225Z,52.20
2018-06-16T14:04:11.283Z,54.70
2018-06-16T14:06:40.714Z,53.00
2018-06-16T14:09:13.819Z,51.20
2018-06-16T14:11:44.044Z,54.10
2018-06-16T14:14:13.487Z,50.60
2018-06-16T14:16:43.019Z,49.40
2018-06-16T14:19:13.215Z,49.40
2018-06-16T14:21:42.651Z,50.80
2018-06-16T14:24:12.156Z,48.10
2018-06-16T14:26:42.176Z,49.50
2018-06-16T14:29:11.617Z,48.70
2018-06-16T14:31:41.111Z,49.60
2018-06-16T14:34:11.745Z,49.60
2018-06-16T14:36:41.312Z,50.20
2018-06-16T14:39:11.758Z,47.60
2018-06-16T14:41:42.084Z,47.90
2018-06-16T14:44:11.538Z,49.80
2018-06-16T14:46:41.759Z,49.10
2018-06-16T14:49:11.236Z,50.50
2018-06-16T14:51:40.672Z,50.00
2018-06-16T14:54:11.901Z,50.60
2018-06-16T14:59:11.126Z,50.20
2018-06-16T15:01:40.588Z,50.90
2018-06-16T15:04:10.859Z,50.70
2018-06-16T15:06:40.415Z,51.30
2018-06-16T15:09:11.710Z,51.80
2018-06-16T15:14:10.086Z,51.50
2018-06-16T15:16:39.638Z,52.00
2018-06-16T15:19:10.342Z,52.80
2018-06-16T15:21:39.788Z,53.50
2018-06-16T15:24:09.215Z,52.00
2018-06-16T15:26:39.295Z,52.40
2018-06-16T15:29:08.838Z,52.40
2018-06-16T15:31:38.250Z,53.80
2018-06-16T15:34:08.130Z,52.90
2018-06-16T15:39:09.368Z,53.10
2018-06-16T15:41:39.464Z,53.10
2018-06-16T15:44:09.963Z,51.80
2018-06-16T15:46:39.498Z,52.70
2018-06-16T15:49:08.992Z,50.60
2018-06-16T15:51:39.247Z,51.40
2018-06-16T15:54:08.809Z,53.00
2018-06-16T15:56:38.535Z,51.80
2018-06-16T15:59:08.667Z,52.00
2018-06-16T16:01:38.134Z,53.30
2018-06-16T16:04:07.672Z,51.50
2018-06-16T16:06:37.802Z,52.20
2018-06-16T16:09:07.861Z,52.50
2018-06-16T16:11:41.241Z,51.50
2018-06-16T16:14:10.742Z,53.60
2018-06-16T16:16:40.217Z,53.70
2018-06-16T16:19:10.351Z,53.00
2018-06-16T16:21:39.861Z,54.20
2018-06-16T16:26:39.435Z,56.50
2018-06-16T16:29:08.909Z,57.40
2018-06-16T16:31:38.413Z,59.30
2018-06-16T16:34:08.732Z,58.90
2018-06-16T16:39:09.454Z,60.70
2018-06-16T16:41:39.587Z,62.20
2018-06-16T16:44:11.176Z,63.10
2018-06-16T16:46:40.627Z,62.50
2018-06-16T16:49:10.110Z,62.60
2018-06-16T16:51:40.471Z,63.50
2018-06-16T16:54:09.926Z,65.20
2018-06-16T16:56:40.037Z,64.60
2018-06-16T16:59:09.535Z,65.70
2018-06-16T17:01:39.106Z,67.10
2018-06-16T17:04:09.490Z,68.90
2018-06-16T17:06:38.952Z,67.00
2018-06-16T17:09:11.223Z,66.40
2018-06-16T17:11:40.901Z,66.80
2018-06-16T17:14:10.408Z,69.10
2018-06-16T17:16:39.866Z,69.70
2018-06-16T17:19:09.902Z,69.10
2018-06-16T17:21:39.412Z,70.60
2018-06-16T17:24:08.863Z,69.70
2018-06-16T17:26:39.784Z,70.50
2018-06-16T17:31:38.237Z,72.00
2018-06-16T17:34:08.080Z,71.50
2018-06-16T17:36:37.587Z,72.80
2018-06-16T17:39:09.266Z,73.30
2018-06-16T17:41:38.890Z,74.10
2018-06-16T17:44:08.364Z,75.90
2018-06-16T17:46:39.844Z,75.30
2018-06-16T17:49:09.353Z,76.10
2018-06-16T17:51:39.769Z,76.70
2018-06-16T17:54:09.197Z,78.10
2018-06-16T17:56:38.663Z,77.60
2018-06-16T17:59:08.114Z,79.40
2018-06-16T18:04:07.722Z,80.10
2018-06-16T18:06:37.864Z,80.20
2018-06-16T18:09:09.691Z,80.60
2018-06-16T18:11:39.196Z,81.80
2018-06-16T18:14:09.477Z,82.20
2018-06-16T18:16:38.996Z,83.50
2018-06-16T18:19:08.456Z,83.00
2018-06-16T18:21:39.026Z,83.50
2018-06-16T18:24:08.514Z,84.20
2018-06-16T18:26:37.979Z,86.10
2018-06-16T18:29:07.953Z,86.40
2018-06-16T18:31:37.471Z,86.60
2018-06-16T18:34:07.393Z,90.30
2018-06-16T18:36:36.912Z,91.20
2018-06-16T18:39:09.299Z,92.00
2018-06-16T18:41:38.917Z,92.90
2018-06-16T18:44:08.367Z,94.30
2018-06-16T18:46:40.364Z,95.70
2018-06-16T18:49:09.863Z,96.50
2018-06-16T18:51:39.365Z,98.00
2018-06-16T18:54:09.286Z,99.60
2018-06-16T18:56:38.753Z,99.90
2018-06-16T18:59:08.231Z,99.90
2018-06-16T19:01:38.237Z,99.90
2018-06-16T19:04:07.723Z,99.90
2018-06-16T19:06:37.206Z,99.90
2018-06-16T19:09:09.026Z,99.90
2018-06-16T19:11:38.991Z,99.90
2018-06-16T19:14:08.566Z,99.90
2018-06-16T19:16:38.781Z,99.90
2018-06-16T19:19:08.395Z,99.90
2018-06-16T19:21:38.383Z,99.90
2018-06-16T19:24:08.793Z,99.90
2018-06-16T19:26:39.147Z,99.90
2018-06-16T19:29:09.129Z,99.90
2018-06-16T19:31:38.596Z,99.90
2018-06-16T19:34:09.143Z,99.90
2018-06-16T19:36:38.707Z,99.90
2018-06-16T19:39:10.889Z,99.90
2018-06-16T19:41:40.435Z,99.90
2018-06-16T19:44:11.021Z,99.90
2018-06-16T19:46:41.409Z,99.90
2018-06-16T19:49:10.846Z,99.90
2018-06-16T19:54:18.285Z,99.90
2018-06-16T19:56:56.060Z,99.90
2018-06-16T19:59:26.344Z,99.90
2018-06-16T20:02:03.315Z,99.90
2018-06-16T20:04:40.362Z,99.90
2018-06-16T20:07:11.129Z,99.90
2018-06-16T20:09:40.567Z,99.90
2018-06-16T20:12:17.982Z,99.90
2018-06-16T20:14:56.522Z,99.90
2018-06-16T20:17:34.836Z,99.90
2018-06-16T20:20:06.895Z,99.90
2018-06-16T20:22:48.089Z,99.90
2018-06-16T20:25:24.863Z,99.90
2018-06-16T20:27:55.689Z,99.90
2018-06-16T20:30:25.154Z,99.90
2018-06-16T20:33:02.629Z,99.90
2018-06-16T20:35:40.665Z,99.90
2018-06-16T20:38:10.639Z,99.90
2018-06-16T20:40:41.032Z,99.90
2018-06-16T20:43:16.909Z,99.90
2018-06-16T20:45:54.453Z,99.90
2018-06-16T20:48:33.595Z,99.90
2018-06-16T20:51:06.232Z,99.90
2018-06-16T20:53:41.844Z,99.90
2018-06-16T20:56:14.197Z,99.90
2018-06-16T20:58:46.032Z,99.90
2018-06-16T21:01:22.747Z,99.90
2018-06-16T21:03:57.563Z,99.90
2018-06-16T21:06:30.218Z,99.90
2018-06-16T21:09:00.718Z,99.90
2018-06-16T21:11:35.709Z,99.90
2018-06-16T21:14:13.230Z,99.90
2018-06-16T21:16:43.996Z,99.90
2018-06-16T21:19:19.432Z,99.90
2018-06-16T21:21:49.226Z,99.90
2018-06-16T21:24:19.949Z,99.90
2018-06-16T21:26:49.629Z,99.90
2018-06-16T21:29:19.144Z,99.90
2018-06-16T21:31:49.451Z,99.90
2018-06-16T21:34:19.046Z,99.90
2018-06-16T21:36:48.928Z,99.90
2018-06-16T21:39:24.932Z,99.90
2018-06-16T21:41:54.865Z,99.90
2018-06-16T21:44:25.376Z,99.90
2018-06-16T21:46:55.184Z,99.90
2018-06-16T21:49:26.430Z,99.90
2018-06-16T21:51:55.909Z,99.90
2018-06-16T21:54:25.830Z,99.90
2018-06-16T21:56:56.181Z,99.90
2018-06-16T21:59:25.778Z,99.90
2018-06-16T22:01:55.345Z,99.90
2018-06-16T22:04:26.076Z,99.90
2018-06-16T22:06:56.278Z,99.90
2018-06-16T22:09:26.935Z,99.90
2018-06-16T22:11:57.251Z,99.90
2018-06-16T22:16:57.802Z,99.90
2018-06-16T22:19:28.585Z,99.90
2018-06-16T22:21:58.715Z,99.90
2018-06-16T22:24:29.397Z,99.90
2018-06-16T22:26:59.131Z,99.90
2018-06-16T22:29:30.450Z,99.90
2018-06-16T22:32:01.047Z,99.90
2018-06-16T22:34:32.214Z,99.90
2018-06-16T22:37:02.946Z,99.90
2018-06-16T22:39:33.998Z,99.90
2018-06-16T22:42:06.815Z,99.90
2018-06-16T22:44:36.958Z,99.90
2018-06-16T22:49:40.595Z,99.90
2018-06-16T22:52:12.368Z,99.90
2018-06-16T22:54:42.798Z,99.90
2018-06-16T22:57:13.794Z,99.90
2018-06-16T22:59:44.347Z,99.90
2018-06-16T23:02:14.160Z,99.90
2018-06-16T23:04:46.547Z,99.90
2018-06-16T23:07:16.491Z,99.90
2018-06-16T23:09:46.971Z,99.90
2018-06-16T23:12:17.147Z,99.90
2018-06-16T23:14:48.290Z,99.90
2018-06-16T23:17:18.690Z,99.90
2018-06-16T23:19:49.755Z,99.90
2018-06-16T23:22:23.073Z,99.90
2018-06-16T23:24:52.881Z,99.90
2018-06-16T23:27:23.534Z,99.90
2018-06-16T23:29:53.830Z,99.90
2018-06-16T23:32:24.731Z,99.90
2018-06-16T23:37:25.783Z,99.90
2018-06-16T23:39:56.049Z,99.90
2018-06-16T23:42:26.984Z,99.90
2018-06-16T23:44:56.680Z,99.90
2018-06-16T23:47:26.942Z,99.90
2018-06-16T23:49:57.999Z,99.90
2018-06-16T23:52:28.761Z,99.90
2018-06-16T23:54:58.438Z,99.90
2018-06-16T23:57:30.675Z,99.90
